Antioch, California
Current Conditions -  °F | °C
As of 4:53 AM on Friday 24 Oct 2014 (Local Time) from KCCR Reporting Station
Clear Clear  
Wind Chill: 59°   Ceiling: Unl
Heat Index: 59°   Visibility: 10mi
Dew Point: 50°   Wind: 6mph
Humidity: 72%   Direction: 110°ESE
Pressure: 29.97"   Gusts: NA
Location:  38.02°N, 121.81°W
Report Text: KCCR 241153Z 11005KT 10SM CLR 15/10 A2997 RMK AO2 SLP135 T01500100 10161 20150 56008
Loading
Personal Weather Stations






























Interactive Weather Map
Tropical Storm Tracking
New forecast layout! Learn more

10-Day Weather Forecast

Advertisements
Track Severe Weather on mobile